Time;durP1;ratioP1;P1;durP2;ratioP2;P2;SDS_P1;SDS_P2;PMS_P1;PMS_P2;Temp;Humidity;BMP_temperature;BMP_pressure;BME280_temperature;BME280_humidity;BME280_pressure;Samples;Min_cycle;Max_cycle;Signal;HPM_P1;HPM_P2
2024/04/20 00:01:03;;;;;;;3.05;1.98;;;;;;;;;;5379795;26;20231;-65
2024/04/20 00:03:32;;;;;;;9.60;2.15;;;;;;;;;;5352924;26;20279;-67
2024/04/20 00:06:02;;;;;;;8.18;2.28;;;;;;;;;;5345114;26;20236;-68
2024/04/20 00:08:31;;;;;;;9.55;1.65;;;;;;;;;;5345080;26;20240;-68
2024/04/20 00:11:04;;;;;;;6.53;1.80;;;;;;;;;;5345146;26;20603;-68
2024/04/20 00:13:37;;;;;;;6.32;1.50;;;;;;;;;;5371593;26;20243;-67
2024/04/20 00:16:06;;;;;;;3.42;1.60;;;;;;;;;;5379919;26;20231;-65
2024/04/20 00:18:35;;;;;;;6.50;3.40;;;;;;;;;;5379874;26;20290;-65
2024/04/20 00:21:04;;;;;;;5.25;1.98;;;;;;;;;;5379489;26;20243;-69
2024/04/20 00:23:33;;;;;;;4.72;1.95;;;;;;;;;;5353088;26;20367;-67
2024/04/20 00:26:04;;;;;;;4.13;1.45;;;;;;;;;;5344492;26;20263;-69
2024/04/20 00:28:36;;;;;;;6.28;2.60;;;;;;;;;;5343767;26;20719;-66
2024/04/20 00:31:05;;;;;;;5.70;1.80;;;;;;;;;;5345741;26;20282;-68
2024/04/20 00:33:34;;;;;;;5.40;1.77;;;;;;;;;;5371199;26;20239;-66
2024/04/20 00:36:03;;;;;;;10.55;2.20;;;;;;;;;;5379563;26;20596;-68
2024/04/20 00:38:32;;;;;;;6.45;1.60;;;;;;;;;;5379642;26;20239;-65
2024/04/20 00:41:01;;;;;;;6.45;1.90;;;;;;;;;;5379554;26;20269;-69
2024/04/20 00:43:30;;;;;;;6.63;2.63;;;;;;;;;;5354068;26;20240;-65
2024/04/20 00:46:02;;;;;;;4.95;1.85;;;;;;;;;;5343345;26;20587;-68
2024/04/20 00:48:31;;;;;;;14.10;2.17;;;;;;;;;;5344622;26;20580;-65
2024/04/20 00:51:00;;;;;;;6.53;1.63;;;;;;;;;;5317800;26;20245;-65
2024/04/20 00:53:29;;;;;;;8.55;2.33;;;;;;;;;;5353099;26;20291;-65
2024/04/20 00:55:58;;;;;;;6.13;2.63;;;;;;;;;;5341352;26;20603;-65
2024/04/20 00:58:29;;;;;;;3.33;1.60;;;;;;;;;;5323542;26;20594;-68
2024/04/20 01:00:58;;;;;;;23.27;3.22;;;;;;;;;;5309548;26;20284;-65
2024/04/20 01:03:30;;;;;;;4.85;1.90;;;;;;;;;;5332814;26;20287;-65
2024/04/20 01:06:00;;;;;;;8.30;2.33;;;;;;;;;;5322069;26;20267;-65
2024/04/20 01:08:29;;;;;;;6.15;2.35;;;;;;;;;;5343491;26;20286;-66
2024/04/20 01:10:58;;;;;;;7.63;2.30;;;;;;;;;;5343593;26;20240;-65
2024/04/20 01:13:29;;;;;;;6.07;2.50;;;;;;;;;;5362295;26;20351;-65
2024/04/20 01:15:57;;;;;;;4.80;2.55;;;;;;;;;;5373819;26;20231;-65
2024/04/20 01:18:26;;;;;;;11.35;2.25;;;;;;;;;;5353951;26;20236;-68
2024/04/20 01:20:58;;;;;;;5.57;2.20;;;;;;;;;;5315358;26;20245;-68
2024/04/20 01:23:27;;;;;;;6.63;2.30;;;;;;;;;;5341744;26;20249;-68
2024/04/20 01:25:59;;;;;;;3.40;1.80;;;;;;;;;;5340087;26;20244;-65
2024/04/20 01:28:27;;;;;;;8.35;2.85;;;;;;;;;;5343906;26;20346;-65
2024/04/20 01:30:56;;;;;;;7.40;2.78;;;;;;;;;;5343172;26;20245;-68
2024/04/20 01:33:25;;;;;;;10.05;2.92;;;;;;;;;;5363875;26;20285;-69
2024/04/20 01:35:54;;;;;;;7.80;1.98;;;;;;;;;;5312085;26;20596;-67
2024/04/20 01:38:23;;;;;;;7.45;2.15;;;;;;;;;;5309987;27;20252;-65
2024/04/20 01:40:52;;;;;;;3.70;1.77;;;;;;;;;;5333249;26;20337;-69
2024/04/20 01:43:23;;;;;;;5.32;2.70;;;;;;;;;;5346241;26;20657;-68
2024/04/20 01:45:52;;;;;;;6.95;2.75;;;;;;;;;;5346218;26;20241;-65
2024/04/20 01:48:18;;;;;;;10.75;2.50;;;;;;;;;;5339270;26;20236;-65
2024/04/20 01:50:47;;;;;;;11.85;2.63;;;;;;;;;;5341621;26;20745;-65
2024/04/20 01:53:16;;;;;;;8.30;2.75;;;;;;;;;;5333452;26;20596;-69
2024/04/20 01:55:45;;;;;;;11.95;3.03;;;;;;;;;;5320602;26;20347;-69
2024/04/20 01:58:14;;;;;;;3.97;2.75;;;;;;;;;;5345566;26;20593;-65
2024/04/20 02:00:46;;;;;;;5.53;2.38;;;;;;;;;;5328889;26;20276;-65
2024/04/20 02:03:14;;;;;;;9.40;3.00;;;;;;;;;;5343312;26;20237;-68
2024/04/20 02:05:43;;;;;;;4.88;3.05;;;;;;;;;;5346485;26;20245;-65
2024/04/20 02:08:12;;;;;;;4.90;1.90;;;;;;;;;;5343747;26;20345;-69
2024/04/20 02:10:41;;;;;;;7.95;2.63;;;;;;;;;;5343050;26;20360;-66
2024/04/20 02:13:10;;;;;;;6.32;2.13;;;;;;;;;;5352034;26;20234;-67
2024/04/20 02:15:39;;;;;;;5.00;2.35;;;;;;;;;;5325424;26;20283;-69
2024/04/20 02:18:11;;;;;;;7.18;2.95;;;;;;;;;;5346935;26;20229;-67
2024/04/20 02:20:40;;;;;;;5.00;1.95;;;;;;;;;;5313605;26;20241;-66
2024/04/20 02:23:09;;;;;;;9.88;3.20;;;;;;;;;;5350975;26;20236;-68
2024/04/20 02:25:38;;;;;;;4.70;2.08;;;;;;;;;;5331233;26;20280;-65
2024/04/20 02:28:08;;;;;;;10.65;3.05;;;;;;;;;;5313735;26;20241;-68
2024/04/20 02:30:36;;;;;;;9.70;2.40;;;;;;;;;;5312224;26;20354;-65
2024/04/20 02:33:05;;;;;;;6.82;2.50;;;;;;;;;;5337369;26;20605;-65
2024/04/20 02:35:42;;;;;;;7.07;2.47;;;;;;;;;;5311897;26;20245;-69
2024/04/20 02:38:11;;;;;;;8.15;2.30;;;;;;;;;;5330151;26;20232;-68
2024/04/20 02:40:40;;;;;;;12.05;2.97;;;;;;;;;;5345669;26;20252;-65
2024/04/20 02:43:09;;;;;;;7.07;2.13;;;;;;;;;;5361411;26;20239;-68
2024/04/20 02:45:37;;;;;;;14.13;2.72;;;;;;;;;;5348179;26;20403;-68
2024/04/20 02:48:07;;;;;;;8.68;2.70;;;;;;;;;;5343560;26;20232;-69
2024/04/20 02:50:36;;;;;;;3.25;1.88;;;;;;;;;;5314341;26;20280;-66
2024/04/20 02:53:07;;;;;;;11.02;2.80;;;;;;;;;;5357225;26;20278;-69
2024/04/20 02:55:36;;;;;;;8.35;2.22;;;;;;;;;;5334081;26;20342;-68
2024/04/20 02:58:05;;;;;;;4.95;2.38;;;;;;;;;;5313307;26;20614;-65
2024/04/20 03:00:34;;;;;;;3.42;2.42;;;;;;;;;;5315467;26;20785;-68
2024/04/20 03:03:03;;;;;;;5.25;2.70;;;;;;;;;;5332015;26;20274;-65
2024/04/20 03:05:31;;;;;;;8.40;2.50;;;;;;;;;;5311728;26;20736;-69
2024/04/20 03:08:01;;;;;;;9.88;2.72;;;;;;;;;;5328118;26;20310;-68
2024/04/20 03:10:32;;;;;;;3.92;2.22;;;;;;;;;;5345424;26;20283;-66
2024/04/20 03:13:01;;;;;;;7.00;2.75;;;;;;;;;;5349672;26;20271;-65
2024/04/20 03:15:30;;;;;;;8.70;2.28;;;;;;;;;;5342451;26;20249;-69
2024/04/20 03:17:58;;;;;;;13.85;2.85;;;;;;;;;;5339004;26;20276;-69
2024/04/20 03:20:27;;;;;;;7.82;2.40;;;;;;;;;;5344711;26;20241;-68
2024/04/20 03:22:57;;;;;;;8.35;2.50;;;;;;;;;;5338196;26;20274;-65
2024/04/20 03:25:25;;;;;;;4.85;2.58;;;;;;;;;;5345460;26;20653;-69
2024/04/20 03:27:54;;;;;;;6.13;2.63;;;;;;;;;;5331452;26;20257;-69
2024/04/20 03:30:23;;;;;;;9.30;2.80;;;;;;;;;;5342678;26;20240;-68
2024/04/20 03:32:52;;;;;;;8.73;2.30;;;;;;;;;;5357061;26;20232;-65
2024/04/20 03:35:21;;;;;;;5.85;2.00;;;;;;;;;;5380111;26;20293;-69
2024/04/20 03:37:50;;;;;;;9.32;2.60;;;;;;;;;;5347940;26;20236;-66
2024/04/20 03:40:19;;;;;;;7.18;2.38;;;;;;;;;;5344843;26;20249;-66
2024/04/20 03:42:48;;;;;;;7.72;2.45;;;;;;;;;;5344063;26;20241;-65
2024/04/20 03:45:20;;;;;;;8.25;1.80;;;;;;;;;;5314834;26;20728;-68
2024/04/20 03:47:48;;;;;;;7.13;1.35;;;;;;;;;;5344681;26;20233;-65
2024/04/20 03:50:19;;;;;;;3.30;1.83;;;;;;;;;;5344385;26;20244;-68
2024/04/20 03:52:49;;;;;;;2.90;1.85;;;;;;;;;;5330882;26;20822;-68
2024/04/20 03:55:18;;;;;;;7.65;1.92;;;;;;;;;;5338857;26;20248;-68
2024/04/20 03:57:47;;;;;;;6.22;1.70;;;;;;;;;;5329556;26;20596;-65
2024/04/20 04:00:16;;;;;;;4.70;2.38;;;;;;;;;;5339614;26;20575;-68
2024/04/20 04:02:48;;;;;;;7.63;2.88;;;;;;;;;;5328915;26;20619;-67
2024/04/20 04:05:17;;;;;;;6.03;1.88;;;;;;;;;;5365507;26;20240;-68
2024/04/20 04:07:46;;;;;;;8.20;3.05;;;;;;;;;;5330257;26;20241;-65
2024/04/20 04:10:15;;;;;;;6.13;3.00;;;;;;;;;;5310734;26;20296;-68
2024/04/20 04:12:44;;;;;;;11.02;1.98;;;;;;;;;;5351258;26;20282;-65
2024/04/20 04:15:13;;;;;;;3.75;1.88;;;;;;;;;;5342758;26;20330;-65
2024/04/20 04:17:41;;;;;;;6.57;2.38;;;;;;;;;;5316514;26;20268;-65
2024/04/20 04:20:13;;;;;;;3.35;1.90;;;;;;;;;;5333505;26;20608;-67
2024/04/20 04:22:42;;;;;;;2.90;2.15;;;;;;;;;;5346147;26;20668;-68
2024/04/20 04:25:11;;;;;;;7.68;1.80;;;;;;;;;;5376123;26;20243;-68
2024/04/20 04:27:40;;;;;;;5.45;1.85;;;;;;;;;;5315876;26;20267;-68
2024/04/20 04:30:09;;;;;;;2.55;1.55;;;;;;;;;;5311705;26;20300;-68
2024/04/20 04:32:38;;;;;;;4.70;1.92;;;;;;;;;;5325710;26;20266;-65
2024/04/20 04:35:07;;;;;;;8.52;2.75;;;;;;;;;;5373318;26;20786;-65
2024/04/20 04:37:38;;;;;;;7.50;5.25;;;;;;;;;;5337000;26;20241;-67
2024/04/20 04:40:08;;;;;;;6.63;4.30;;;;;;;;;;5344017;26;20357;-67
2024/04/20 04:42:36;;;;;;;5.60;2.85;;;;;;;;;;5350341;26;20843;-68
2024/04/20 04:45:06;;;;;;;3.35;2.53;;;;;;;;;;5351627;26;20291;-66
2024/04/20 04:47:35;;;;;;;5.55;1.88;;;;;;;;;;5338896;26;20618;-65
2024/04/20 04:50:04;;;;;;;4.43;2.10;;;;;;;;;;5319081;26;20249;-65
2024/04/20 04:52:34;;;;;;;7.47;1.80;;;;;;;;;;5336646;26;20239;-69
2024/04/20 04:55:06;;;;;;;4.30;1.92;;;;;;;;;;5311759;26;20257;-69
2024/04/20 04:57:34;;;;;;;12.23;3.10;;;;;;;;;;5344225;26;20228;-68
2024/04/20 05:00:03;;;;;;;8.38;2.50;;;;;;;;;;5320077;26;20249;-65
2024/04/20 05:02:32;;;;;;;5.20;2.20;;;;;;;;;;5348546;26;20232;-65
2024/04/20 05:05:01;;;;;;;5.75;2.08;;;;;;;;;;5324073;26;20301;-65
2024/04/20 05:07:30;;;;;;;7.07;2.60;;;;;;;;;;5321855;26;20244;-65
2024/04/20 05:09:59;;;;;;;7.40;1.98;;;;;;;;;;5350009;26;20287;-68
2024/04/20 05:12:30;;;;;;;4.47;1.73;;;;;;;;;;5339699;26;20236;-65
2024/04/20 05:14:59;;;;;;;3.05;1.65;;;;;;;;;;5340195;26;20334;-66
2024/04/20 05:17:28;;;;;;;2.58;1.60;;;;;;;;;;5344308;26;20565;-65
2024/04/20 05:19:57;;;;;;;6.72;2.15;;;;;;;;;;5344777;26;20729;-65
2024/04/20 05:22:26;;;;;;;4.05;2.60;;;;;;;;;;5323937;26;20241;-68
2024/04/20 05:24:55;;;;;;;7.68;2.33;;;;;;;;;;5331676;26;20246;-67
2024/04/20 05:27:23;;;;;;;4.93;3.33;;;;;;;;;;5345597;26;20262;-66
2024/04/20 05:29:55;;;;;;;3.25;2.95;;;;;;;;;;5358799;26;20244;-68
2024/04/20 05:32:24;;;;;;;4.18;2.03;;;;;;;;;;5326418;26;20730;-67
2024/04/20 05:34:53;;;;;;;2.88;2.58;;;;;;;;;;5355985;26;20714;-67
2024/04/20 05:37:22;;;;;;;2.25;2.15;;;;;;;;;;5342431;26;20248;-66
2024/04/20 05:39:50;;;;;;;2.50;2.30;;;;;;;;;;5363691;26;20240;-68
2024/04/20 05:42:19;;;;;;;3.15;2.35;;;;;;;;;;5346794;26;20785;-66
2024/04/20 05:44:48;;;;;;;2.10;1.90;;;;;;;;;;5323772;26;20245;-66
2024/04/20 05:47:20;;;;;;;2.50;2.13;;;;;;;;;;5345433;26;20233;-66
2024/04/20 05:49:48;;;;;;;5.72;2.35;;;;;;;;;;5319492;26;20600;-66
2024/04/20 05:52:17;;;;;;;4.40;3.00;;;;;;;;;;5346695;26;20236;-68
2024/04/20 05:54:46;;;;;;;2.70;2.00;;;;;;;;;;5345417;26;20299;-66
2024/04/20 05:57:15;;;;;;;8.70;3.00;;;;;;;;;;5347027;26;20343;-67
2024/04/20 05:59:44;;;;;;;2.28;2.08;;;;;;;;;;5346124;26;20256;-66
2024/04/20 06:02:13;;;;;;;9.05;3.63;;;;;;;;;;5346509;26;20260;-67
2024/04/20 06:04:49;;;;;;;5.47;2.90;;;;;;;;;;5367015;26;20608;-66
2024/04/20 06:07:20;;;;;;;4.30;1.80;;;;;;;;;;5346414;26;20236;-68
2024/04/20 06:09:49;;;;;;;2.10;1.70;;;;;;;;;;5345948;26;20248;-66
2024/04/20 06:12:18;;;;;;;2.40;2.20;;;;;;;;;;5346770;26;20240;-68
2024/04/20 06:14:47;;;;;;;2.60;2.35;;;;;;;;;;5337916;26;20292;-66
2024/04/20 06:17:15;;;;;;;2.58;2.20;;;;;;;;;;5337411;26;20232;-66
2024/04/20 06:19:47;;;;;;;3.67;2.22;;;;;;;;;;5365139;26;20279;-68
2024/04/20 06:22:16;;;;;;;2.75;2.10;;;;;;;;;;5343923;26;20288;-66
2024/04/20 06:24:47;;;;;;;2.63;2.42;;;;;;;;;;5355343;26;20239;-68
2024/04/20 06:27:16;;;;;;;2.92;2.13;;;;;;;;;;5325951;26;20267;-67
2024/04/20 06:29:45;;;;;;;5.45;2.47;;;;;;;;;;5339214;26;20288;-68
2024/04/20 06:32:13;;;;;;;2.47;2.28;;;;;;;;;;5372021;26;20328;-68
2024/04/20 06:34:42;;;;;;;5.63;3.22;;;;;;;;;;5380633;26;20235;-66
2024/04/20 06:37:14;;;;;;;4.07;3.38;;;;;;;;;;5376465;26;20579;-66
2024/04/20 06:39:43;;;;;;;5.43;3.83;;;;;;;;;;5314897;26;20292;-66
2024/04/20 06:42:12;;;;;;;3.83;3.35;;;;;;;;;;5323100;26;20237;-68
2024/04/20 06:44:42;;;;;;;3.30;3.10;;;;;;;;;;5376243;26;20596;-68
2024/04/20 06:47:11;;;;;;;4.00;2.47;;;;;;;;;;5381144;26;20227;-68
2024/04/20 06:49:40;;;;;;;3.25;2.95;;;;;;;;;;5380696;26;20240;-68
2024/04/20 06:52:09;;;;;;;3.33;3.10;;;;;;;;;;5381220;26;20231;-68
2024/04/20 06:54:42;;;;;;;8.13;3.38;;;;;;;;;;5348264;26;20241;-67
2024/04/20 06:57:11;;;;;;;3.92;3.35;;;;;;;;;;5346540;26;20263;-69
2024/04/20 06:59:40;;;;;;;3.40;3.13;;;;;;;;;;5345484;26;20252;-67
2024/04/20 07:02:09;;;;;;;3.05;2.90;;;;;;;;;;5345702;26;20593;-68
2024/04/20 07:04:38;;;;;;;6.40;3.20;;;;;;;;;;5376955;26;20239;-66
2024/04/20 07:07:07;;;;;;;3.60;3.28;;;;;;;;;;5381116;26;20701;-68
2024/04/20 07:09:37;;;;;;;4.30;3.50;;;;;;;;;;5375705;26;20285;-66
2024/04/20 07:12:06;;;;;;;4.82;3.03;;;;;;;;;;5377365;26;20615;-66
2024/04/20 07:14:35;;;;;;;4.32;3.90;;;;;;;;;;5336887;26;20241;-66
2024/04/20 07:17:04;;;;;;;4.18;3.67;;;;;;;;;;5329929;26;20730;-68
2024/04/20 07:19:33;;;;;;;3.83;3.38;;;;;;;;;;5345133;26;20240;-66
2024/04/20 07:22:02;;;;;;;5.10;3.80;;;;;;;;;;5322836;26;20249;-68
2024/04/20 07:24:31;;;;;;;6.25;3.90;;;;;;;;;;5340287;26;20433;-68
2024/04/20 07:27:00;;;;;;;3.80;3.50;;;;;;;;;;5342656;26;20334;-67
2024/04/20 07:29:32;;;;;;;5.88;5.20;;;;;;;;;;5340056;26;20245;-66
2024/04/20 07:32:01;;;;;;;5.50;5.05;;;;;;;;;;5345363;26;20758;-68
2024/04/20 07:34:31;;;;;;;5.80;5.30;;;;;;;;;;5370039;26;20269;-68
2024/04/20 07:37:00;;;;;;;7.25;6.35;;;;;;;;;;5338649;26;20275;-66
2024/04/20 07:39:29;;;;;;;5.78;5.38;;;;;;;;;;5342274;26;20291;-69
2024/04/20 07:41:58;;;;;;;6.72;6.43;;;;;;;;;;5344623;26;20240;-68
2024/04/20 07:44:26;;;;;;;7.25;6.65;;;;;;;;;;5340674;26;20474;-68
2024/04/20 07:47:04;;;;;;;7.30;7.00;;;;;;;;;;5316907;26;20245;-68
2024/04/20 07:49:33;;;;;;;7.95;7.43;;;;;;;;;;5329852;26;20288;-68
2024/04/20 07:52:02;;;;;;;8.10;7.65;;;;;;;;;;5336836;26;20236;-68
2024/04/20 07:54:31;;;;;;;9.30;8.80;;;;;;;;;;5343953;26;20244;-66
2024/04/20 07:57:00;;;;;;;8.80;8.50;;;;;;;;;;5330686;26;20288;-66
2024/04/20 07:59:29;;;;;;;9.43;8.80;;;;;;;;;;5344344;26;20287;-68
2024/04/20 08:01:58;;;;;;;10.48;9.48;;;;;;;;;;5333961;26;20241;-69
2024/04/20 08:04:30;;;;;;;10.35;9.68;;;;;;;;;;5331877;26;20240;-67
2024/04/20 08:06:59;;;;;;;10.68;10.07;;;;;;;;;;5345139;26;20236;-69
2024/04/20 08:09:28;;;;;;;10.80;10.20;;;;;;;;;;5341897;26;20240;-67
2024/04/20 08:11:57;;;;;;;9.35;8.85;;;;;;;;;;5344137;26;20248;-69
2024/04/20 08:14:26;;;;;;;10.85;10.10;;;;;;;;;;5343344;26;20297;-69
2024/04/20 08:16:54;;;;;;;10.93;10.32;;;;;;;;;;5328381;26;20245;-67
2024/04/20 08:19:23;;;;;;;11.07;10.57;;;;;;;;;;5330099;26;20593;-70
2024/04/20 08:21:55;;;;;;;12.20;11.40;;;;;;;;;;5336860;26;20253;-66
2024/04/20 08:24:24;;;;;;;12.50;11.82;;;;;;;;;;5323503;26;20241;-66
2024/04/20 08:26:55;;;;;;;11.05;10.25;;;;;;;;;;5335661;26;20316;-68
2024/04/20 08:29:24;;;;;;;12.60;11.90;;;;;;;;;;5339399;26;20275;-67
2024/04/20 08:31:53;;;;;;;12.10;11.50;;;;;;;;;;5339504;26;20275;-67
2024/04/20 08:34:21;;;;;;;12.52;11.93;;;;;;;;;;5345775;26;20244;-66
2024/04/20 08:36:50;;;;;;;12.25;11.65;;;;;;;;;;5343807;26;20721;-69
2024/04/20 08:39:22;;;;;;;12.30;11.70;;;;;;;;;;5344592;26;20620;-66
2024/04/20 08:41:54;;;;;;;12.57;11.90;;;;;;;;;;5344114;26;20267;-67
2024/04/20 08:44:23;;;;;;;13.68;12.77;;;;;;;;;;5369496;26;20239;-66
2024/04/20 08:46:52;;;;;;;13.27;12.45;;;;;;;;;;5379301;26;20262;-69
2024/04/20 08:49:22;;;;;;;13.70;12.88;;;;;;;;;;5381457;26;20243;-68
2024/04/20 08:51:51;;;;;;;12.75;12.00;;;;;;;;;;5382553;26;20266;-67
2024/04/20 08:54:24;;;;;;;13.68;12.80;;;;;;;;;;5357722;26;20244;-68
2024/04/20 08:56:53;;;;;;;13.65;13.05;;;;;;;;;;5347262;26;20232;-68
2024/04/20 08:59:22;;;;;;;14.77;13.75;;;;;;;;;;5348101;26;20805;-68
2024/04/20 09:01:51;;;;;;;14.05;13.15;;;;;;;;;;5350205;26;20577;-69
2024/04/20 09:04:20;;;;;;;13.37;12.37;;;;;;;;;;5330466;26;20329;-67
2024/04/20 09:06:49;;;;;;;13.73;13.03;;;;;;;;;;5314789;26;20970;-69
2024/04/20 09:09:19;;;;;;;14.10;13.40;;;;;;;;;;5312728;26;20600;-67
2024/04/20 09:11:51;;;;;;;14.27;13.43;;;;;;;;;;5314270;26;20547;-68
2024/04/20 09:14:23;;;;;;;13.93;13.02;;;;;;;;;;5356032;26;20652;-66
2024/04/20 09:16:51;;;;;;;13.77;13.10;;;;;;;;;;5341030;26;20244;-66
2024/04/20 09:19:22;;;;;;;13.02;12.20;;;;;;;;;;5345601;26;20244;-66
2024/04/20 09:21:51;;;;;;;12.80;12.20;;;;;;;;;;5318914;26;20242;-67
2024/04/20 09:24:20;;;;;;;13.53;12.77;;;;;;;;;;5359573;26;20630;-66
2024/04/20 09:26:55;;;;;;;14.00;13.20;;;;;;;;;;5324611;26;20577;-68
2024/04/20 09:29:24;;;;;;;13.57;12.80;;;;;;;;;;5319172;26;20292;-68
2024/04/20 09:31:54;;;;;;;14.18;13.40;;;;;;;;;;5343913;26;20567;-67
2024/04/20 09:34:24;;;;;;;13.10;12.60;;;;;;;;;;5339173;26;20242;-68
2024/04/20 09:36:53;;;;;;;13.82;13.10;;;;;;;;;;5314371;26;20275;-68
2024/04/20 09:39:23;;;;;;;15.15;14.15;;;;;;;;;;5344557;26;20240;-67
2024/04/20 09:41:55;;;;;;;14.98;14.27;;;;;;;;;;5322775;26;20335;-66
2024/04/20 09:44:26;;;;;;;14.70;13.90;;;;;;;;;;5346619;26;20246;-68
2024/04/20 09:46:55;;;;;;;14.15;13.55;;;;;;;;;;5345995;26;20278;-68
2024/04/20 09:49:27;;;;;;;13.90;13.00;;;;;;;;;;5343202;26;20287;-67
2024/04/20 09:52:01;;;;;;;15.17;14.23;;;;;;;;;;5346723;26;20571;-68
2024/04/20 09:54:33;;;;;;;13.57;12.93;;;;;;;;;;5369491;26;20704;-66
2024/04/20 09:57:07;;;;;;;14.20;13.30;;;;;;;;;;5381642;26;20569;-67
2024/04/20 09:59:37;;;;;;;13.80;13.30;;;;;;;;;;5322949;26;21131;-69
2024/04/20 10:02:07;;;;;;;13.77;13.27;;;;;;;;;;5312289;27;20549;-69
2024/04/20 10:04:36;;;;;;;14.90;14.10;;;;;;;;;;5347991;26;20616;-68
2024/04/20 10:07:06;;;;;;;15.00;14.30;;;;;;;;;;5312202;27;20628;-66
2024/04/20 10:09:37;;;;;;;14.83;14.23;;;;;;;;;;5311823;26;20640;-66
2024/04/20 10:12:09;;;;;;;17.00;15.90;;;;;;;;;;5311996;27;20541;-66
2024/04/20 10:14:40;;;;;;;15.97;15.27;;;;;;;;;;5321303;26;21016;-68
2024/04/20 10:17:09;;;;;;;15.10;14.30;;;;;;;;;;5325717;26;20583;-69
2024/04/20 10:19:39;;;;;;;15.60;14.60;;;;;;;;;;5319223;26;20603;-68
2024/04/20 10:22:07;;;;;;;16.27;15.37;;;;;;;;;;5336467;26;20604;-70
2024/04/20 10:24:36;;;;;;;16.03;15.07;;;;;;;;;;5371185;26;21142;-68
2024/04/20 10:27:05;;;;;;;16.57;15.50;;;;;;;;;;5380935;26;20565;-68
2024/04/20 10:29:37;;;;;;;15.90;15.10;;;;;;;;;;5345046;26;20837;-68
2024/04/20 10:32:08;;;;;;;15.57;14.87;;;;;;;;;;5346136;26;21097;-69
2024/04/20 10:34:37;;;;;;;16.83;15.83;;;;;;;;;;5371598;26;20585;-66
2024/04/20 10:37:08;;;;;;;15.33;14.70;;;;;;;;;;5365404;26;21141;-67
2024/04/20 10:39:38;;;;;;;16.23;15.53;;;;;;;;;;5311662;27;20588;-68
2024/04/20 10:42:07;;;;;;;16.33;15.57;;;;;;;;;;5311605;27;20560;-68
2024/04/20 10:44:39;;;;;;;15.20;14.60;;;;;;;;;;5321690;26;21074;-67
2024/04/20 10:47:08;;;;;;;15.80;15.10;;;;;;;;;;5322497;26;20617;-68
2024/04/20 10:49:37;;;;;;;15.87;15.00;;;;;;;;;;5332396;26;21203;-65
2024/04/20 10:52:06;;;;;;;16.40;15.63;;;;;;;;;;5320445;26;20617;-67
2024/04/20 10:54:35;;;;;;;18.20;17.17;;;;;;;;;;5360808;26;21119;-66
2024/04/20 10:57:05;;;;;;;17.37;16.47;;;;;;;;;;5353839;26;20576;-67
2024/04/20 10:59:34;;;;;;;15.23;14.40;;;;;;;;;;5335772;26;20635;-69
2024/04/20 11:02:08;;;;;;;13.43;12.73;;;;;;;;;;5346090;26;20627;-66
2024/04/20 11:04:37;;;;;;;10.38;9.77;;;;;;;;;;5370115;26;20703;-66
2024/04/20 11:07:06;;;;;;;6.47;6.10;;;;;;;;;;5370836;26;20630;-70
2024/04/20 11:09:35;;;;;;;5.00;4.00;;;;;;;;;;5345231;26;20245;-68
2024/04/20 11:12:05;;;;;;;4.30;4.10;;;;;;;;;;5344307;26;20240;-67
2024/04/20 11:14:34;;;;;;;5.10;3.90;;;;;;;;;;5329247;26;20237;-66
2024/04/20 11:17:07;;;;;;;2.80;2.70;;;;;;;;;;5311627;26;20245;-69
2024/04/20 11:19:38;;;;;;;2.10;2.00;;;;;;;;;;5312647;26;20307;-69
2024/04/20 11:22:07;;;;;;;2.70;2.50;;;;;;;;;;5311521;27;20263;-68
2024/04/20 11:24:38;;;;;;;3.97;2.88;;;;;;;;;;5334116;26;20659;-67
2024/04/20 11:27:08;;;;;;;2.80;2.60;;;;;;;;;;5311498;27;20229;-68
2024/04/20 11:29:35;;;;;;;2.70;2.50;;;;;;;;;;5347422;26;20278;-68
2024/04/20 11:32:07;;;;;;;2.90;2.70;;;;;;;;;;5380588;26;20725;-66
2024/04/20 11:34:36;;;;;;;5.30;5.10;;;;;;;;;;5358996;26;20252;-70
2024/04/20 11:37:05;;;;;;;7.97;7.77;;;;;;;;;;5344410;26;20559;-69
2024/04/20 11:39:34;;;;;;;10.87;10.37;;;;;;;;;;5344910;26;20655;-68
2024/04/20 11:42:06;;;;;;;11.90;11.30;;;;;;;;;;5345316;26;20548;-69
2024/04/20 11:44:37;;;;;;;13.17;12.27;;;;;;;;;;5339914;26;20646;-69
2024/04/20 11:47:13;;;;;;;12.17;11.67;;;;;;;;;;5345379;26;20623;-67
2024/04/20 11:49:42;;;;;;;12.10;11.60;;;;;;;;;;5339414;26;20602;-68
2024/04/20 11:55:04;;;;;;;12.20;11.60;;;;;;;;;;5333281;26;20599;-66
2024/04/20 11:57:33;;;;;;;13.20;12.60;;;;;;;;;;5343138;26;20884;-67
2024/04/20 12:00:04;;;;;;;13.10;12.50;;;;;;;;;;5342416;26;21195;-67
2024/04/20 12:02:36;;;;;;;12.33;11.73;;;;;;;;;;5351996;26;21148;-66
2024/04/20 12:05:05;;;;;;;13.70;12.90;;;;;;;;;;5350119;26;20671;-67
2024/04/20 12:07:35;;;;;;;13.23;12.60;;;;;;;;;;5332387;26;20981;-68
2024/04/20 12:10:04;;;;;;;12.47;11.87;;;;;;;;;;5360401;26;20617;-68
2024/04/20 12:12:33;;;;;;;11.70;11.30;;;;;;;;;;5379325;26;20542;-67
2024/04/20 12:15:02;;;;;;;12.50;12.07;;;;;;;;;;5330180;26;21051;-68
2024/04/20 12:17:32;;;;;;;11.93;11.53;;;;;;;;;;5318795;26;20568;-65
2024/04/20 12:20:04;;;;;;;13.33;12.90;;;;;;;;;;5322819;26;21105;-68
2024/04/20 12:22:33;;;;;;;14.30;13.60;;;;;;;;;;5343721;26;20619;-66
2024/04/20 12:25:02;;;;;;;14.30;13.80;;;;;;;;;;5344603;26;20721;-68
2024/04/20 12:27:31;;;;;;;14.83;14.23;;;;;;;;;;5344819;26;20563;-66
2024/04/20 12:30:00;;;;;;;13.87;13.37;;;;;;;;;;5343711;26;20607;-67
2024/04/20 12:32:30;;;;;;;13.47;12.97;;;;;;;;;;5340867;26;20911;-66
2024/04/20 12:34:59;;;;;;;13.97;13.47;;;;;;;;;;5336072;26;21268;-68
2024/04/20 12:37:31;;;;;;;14.60;13.77;;;;;;;;;;5310579;27;21098;-66
2024/04/20 12:40:00;;;;;;;14.70;14.10;;;;;;;;;;5331046;26;20599;-66
2024/04/20 12:42:30;;;;;;;13.20;12.60;;;;;;;;;;5344352;26;21114;-66
2024/04/20 12:45:02;;;;;;;13.77;13.20;;;;;;;;;;5371818;26;21166;-67
2024/04/20 12:47:31;;;;;;;11.53;11.13;;;;;;;;;;5379378;26;20585;-67
2024/04/20 12:50:00;;;;;;;10.20;9.80;;;;;;;;;;5353989;26;20647;-67
2024/04/20 12:52:32;;;;;;;8.50;8.20;;;;;;;;;;5322012;26;20583;-67
2024/04/20 12:55:03;;;;;;;7.35;6.97;;;;;;;;;;5348453;26;20334;-67
2024/04/20 12:57:32;;;;;;;5.80;5.50;;;;;;;;;;5342872;26;20711;-68
2024/04/20 13:00:01;;;;;;;5.65;5.45;;;;;;;;;;5309144;26;20391;-66
2024/04/20 13:02:30;;;;;;;5.70;5.50;;;;;;;;;;5326883;26;20259;-68
2024/04/20 13:04:59;;;;;;;6.55;6.35;;;;;;;;;;5362641;26;20243;-66
2024/04/20 13:07:27;;;;;;;9.45;8.85;;;;;;;;;;5339023;26;20723;-68
2024/04/20 13:09:59;;;;;;;10.50;9.38;;;;;;;;;;5343822;26;20245;-66
2024/04/20 13:12:28;;;;;;;5.18;4.97;;;;;;;;;;5335890;26;20276;-67
2024/04/20 13:14:57;;;;;;;5.03;4.80;;;;;;;;;;5332608;26;20320;-68
2024/04/20 13:17:26;;;;;;;3.00;2.90;;;;;;;;;;5346441;26;20267;-66
2024/04/20 13:19:56;;;;;;;4.80;4.50;;;;;;;;;;5329394;26;20245;-67
2024/04/20 13:22:25;;;;;;;2.75;2.55;;;;;;;;;;5343237;26;20589;-67
2024/04/20 13:24:55;;;;;;;1.42;1.33;;;;;;;;;;5341197;26;20730;-67
2024/04/20 13:27:26;;;;;;;1.60;1.50;;;;;;;;;;5360010;26;20275;-67
2024/04/20 13:29:56;;;;;;;1.30;1.20;;;;;;;;;;5339273;26;20245;-66
2024/04/20 13:32:24;;;;;;;1.48;1.38;;;;;;;;;;5343479;26;20271;-68
2024/04/20 13:34:57;;;;;;;1.13;0.95;;;;;;;;;;5369904;26;20235;-67
2024/04/20 13:37:26;;;;;;;0.80;0.80;;;;;;;;;;5382641;26;20227;-66
2024/04/20 13:39:55;;;;;;;1.30;1.20;;;;;;;;;;5381630;26;20771;-66
2024/04/20 13:42:26;;;;;;;0.93;0.93;;;;;;;;;;5371283;26;20272;-66
2024/04/20 13:44:58;;;;;;;1.30;1.20;;;;;;;;;;5355678;26;20726;-69
2024/04/20 13:47:28;;;;;;;1.38;1.30;;;;;;;;;;5314398;26;20233;-68
2024/04/20 13:49:56;;;;;;;2.20;2.08;;;;;;;;;;5315424;26;20249;-68
2024/04/20 13:52:25;;;;;;;3.17;3.07;;;;;;;;;;5316990;26;20728;-67
2024/04/20 13:54:54;;;;;;;4.90;4.70;;;;;;;;;;5361060;26;21063;-65
2024/04/20 13:57:23;;;;;;;7.57;7.07;;;;;;;;;;5353087;26;20594;-67
2024/04/20 13:59:54;;;;;;;9.50;9.10;;;;;;;;;;5330242;26;20604;-67
2024/04/20 14:02:25;;;;;;;15.30;14.30;;;;;;;;;;5340901;26;20567;-67
2024/04/20 14:04:55;;;;;;;16.33;15.03;;;;;;;;;;5358588;26;20599;-67
2024/04/20 14:07:24;;;;;;;14.67;13.80;;;;;;;;;;5343623;26;20567;-67
2024/04/20 14:09:52;;;;;;;32.13;29.30;;;;;;;;;;5333300;26;20663;-66
2024/04/20 14:12:22;;;;;;;19.30;17.43;;;;;;;;;;5323928;26;20587;-67
2024/04/20 14:14:53;;;;;;;11.90;11.50;;;;;;;;;;5344386;26;20650;-66
2024/04/20 14:17:23;;;;;;;12.23;11.70;;;;;;;;;;5341185;26;20623;-67
2024/04/20 14:19:54;;;;;;;11.97;11.50;;;;;;;;;;5346098;26;20579;-66
2024/04/20 14:22:23;;;;;;;11.57;11.20;;;;;;;;;;5321252;26;20623;-66
2024/04/20 14:24:52;;;;;;;13.17;12.57;;;;;;;;;;5348384;26;20683;-67
2024/04/20 14:27:21;;;;;;;12.70;12.20;;;;;;;;;;5345527;26;20627;-66
2024/04/20 14:29:49;;;;;;;14.00;13.40;;;;;;;;;;5334465;26;20984;-66
2024/04/20 14:32:20;;;;;;;13.00;12.50;;;;;;;;;;5346040;26;21119;-65
2024/04/20 14:34:49;;;;;;;12.00;11.60;;;;;;;;;;5355595;26;20603;-67
2024/04/20 14:37:20;;;;;;;14.10;13.37;;;;;;;;;;5344427;26;20567;-65
2024/04/20 14:39:53;;;;;;;15.43;14.40;;;;;;;;;;5333300;26;20643;-67
2024/04/20 14:42:22;;;;;;;14.23;13.43;;;;;;;;;;5339588;26;20591;-68
2024/04/20 14:44:51;;;;;;;14.77;13.87;;;;;;;;;;5368803;26;20783;-67
2024/04/20 14:47:20;;;;;;;14.10;13.40;;;;;;;;;;5313887;26;20549;-67
2024/04/20 14:49:49;;;;;;;16.80;15.63;;;;;;;;;;5311297;27;20608;-66